Time;durP1;ratioP1;P1;durP2;ratioP2;P2;SDS_P1;SDS_P2;PMS_P1;PMS_P2;Temp;Humidity;BMP_temperature;BMP_pressure;BME280_temperature;BME280_humidity;BME280_pressure;Samples;Min_cycle;Max_cycle;Signal;HPM_P1;HPM_P2
2023/06/18 00:01:25;;;;;;;6.15;5.20;;;;;15.50;94092.00;;;;7407591;19;20176;-91
2023/06/18 00:03:54;;;;;;;10.05;4.95;;;;;15.50;94083.00;;;;7404286;19;20180;-92
2023/06/18 00:06:35;;;;;;;6.35;5.07;;;;;15.30;94082.00;;;;7405398;19;20677;-92
2023/06/18 00:09:10;;;;;;;6.20;4.88;;;;;15.40;94073.00;;;;7406637;19;20151;-92
2023/06/18 00:11:44;;;;;;;6.88;4.97;;;;;15.30;94084.00;;;;7407073;19;20152;-91
2023/06/18 00:14:12;;;;;;;6.18;5.28;;;;;15.40;94087.00;;;;7404174;19;20165;-92
2023/06/18 00:16:46;;;;;;;6.90;5.38;;;;;15.50;94078.00;;;;7405943;19;20158;-92
2023/06/18 00:19:15;;;;;;;7.53;5.47;;;;;15.60;94077.00;;;;7404437;19;20151;-92
2023/06/18 00:21:50;;;;;;;6.65;5.40;;;;;15.80;94079.00;;;;7403430;19;20177;-92
2023/06/18 00:24:25;;;;;;;5.97;5.38;;;;;15.90;94079.00;;;;7403634;19;20169;-92
2023/06/18 00:26:53;;;;;;;9.77;5.57;;;;;15.90;94070.00;;;;7403276;19;20162;-92
2023/06/18 00:29:29;;;;;;;10.00;5.20;;;;;15.70;94074.00;;;;7404186;19;20498;-91
2023/06/18 00:31:57;;;;;;;6.22;5.15;;;;;15.70;94080.00;;;;7406603;19;20557;-91
2023/06/18 00:34:32;;;;;;;7.68;5.57;;;;;15.80;94071.00;;;;7404877;19;20608;-93
2023/06/18 00:37:02;;;;;;;8.85;4.90;;;;;15.60;94071.00;;;;7402372;19;20156;-93
2023/06/18 00:39:38;;;;;;;8.98;4.78;;;;;15.60;94073.00;;;;7402732;19;20152;-92
2023/06/18 00:42:11;;;;;;;6.50;5.10;;;;;15.70;94063.00;;;;7402080;19;20162;-92
2023/06/18 00:44:45;;;;;;;9.70;5.18;;;;;15.70;94065.00;;;;7403983;19;20160;-93
2023/06/18 00:47:13;;;;;;;6.25;5.38;;;;;15.50;94057.00;;;;7403482;19;20535;-92
2023/06/18 00:49:49;;;;;;;7.30;5.20;;;;;15.50;94061.00;;;;7404178;19;20179;-92
2023/06/18 00:52:23;;;;;;;7.35;4.85;;;;;15.50;94067.00;;;;7402676;19;20148;-92
2023/06/18 00:54:58;;;;;;;7.82;5.40;;;;;15.60;94059.00;;;;7402725;19;20175;-92
2023/06/18 00:57:34;;;;;;;7.78;5.75;;;;;15.40;94054.00;;;;7405769;19;21145;-92
2023/06/18 01:00:20;;;;;;;5.80;4.82;;;;;15.40;94054.00;;;;7405953;19;20156;-93
2023/06/18 01:03:02;;;;;;;5.78;5.07;;;;;15.50;94048.00;;;;7389674;19;20545;-75
2023/06/18 01:05:31;;;;;;;5.38;4.88;;;;;15.30;94058.00;;;;7394629;19;20124;-77
2023/06/18 01:08:06;;;;;;;10.13;5.43;;;;;15.70;94053.00;;;;7396464;19;20154;-76
2023/06/18 01:10:39;;;;;;;6.93;4.95;;;;;15.50;94050.00;;;;7396959;19;20139;-75
2023/06/18 01:13:15;;;;;;;6.90;4.78;;;;;15.30;94052.00;;;;7395529;19;20128;-76
2023/06/18 01:15:43;;;;;;;8.63;5.18;;;;;15.20;94046.00;;;;7394818;19;20644;-76
2023/06/18 01:18:14;;;;;;;9.77;5.28;;;;;15.20;94049.00;;;;7393981;19;20149;-76
2023/06/18 01:20:49;;;;;;;7.25;5.10;;;;;15.20;94053.00;;;;7394899;19;20152;-76
2023/06/18 01:23:35;;;;;;;6.72;5.18;;;;;15.40;94046.00;;;;7395097;19;20165;-77
2023/06/18 01:26:09;;;;;;;6.28;5.30;;;;;15.50;94039.00;;;;7395464;19;20502;-76
2023/06/18 01:28:40;;;;;;;5.97;5.40;;;;;15.50;94042.00;;;;7394568;19;20140;-76
2023/06/18 01:31:14;;;;;;;7.15;5.55;;;;;15.60;94035.00;;;;7392048;19;20548;-75
2023/06/18 01:33:42;;;;;;;7.22;5.38;;;;;15.60;94033.00;;;;7396918;19;20154;-76
2023/06/18 01:36:34;;;;;;;6.63;5.40;;;;;15.50;94041.00;;;;7394979;19;20143;-76
2023/06/18 01:39:36;;;;;;;6.22;5.25;;;;;15.70;94039.00;;;;7394225;19;20161;-76
2023/06/18 01:42:18;;;;;;;6.72;5.20;;;;;15.60;94033.00;;;;7394214;19;20159;-76
2023/06/18 01:44:56;;;;;;;8.63;5.05;;;;;15.70;94041.00;;;;7393510;19;20139;-76
2023/06/18 01:47:32;;;;;;;9.25;4.88;;;;;15.90;94042.00;;;;7393261;19;20145;-77
2023/06/18 01:50:07;;;;;;;6.35;5.13;;;;;15.90;94036.00;;;;7395162;19;20171;-76
2023/06/18 01:52:44;;;;;;;6.68;4.82;;;;;16.10;94036.00;;;;7393675;19;20145;-76
2023/06/18 01:55:20;;;;;;;6.93;4.95;;;;;16.00;94027.00;;;;7392920;19;20145;-76
2023/06/18 01:57:55;;;;;;;7.80;5.28;;;;;15.90;94031.00;;;;7393576;19;20162;-77
2023/06/18 02:00:23;;;;;;;6.60;5.43;;;;;16.10;94036.00;;;;7394856;19;20462;-75
2023/06/18 02:03:04;;;;;;;9.93;5.47;;;;;16.10;94034.00;;;;7392076;19;20184;-75
2023/06/18 02:05:39;;;;;;;9.23;5.35;;;;;16.00;94034.00;;;;7392546;19;20186;-78
2023/06/18 02:08:14;;;;;;;8.35;5.95;;;;;16.00;94031.00;;;;7393998;19;20537;-76
2023/06/18 02:10:50;;;;;;;6.03;5.32;;;;;16.00;94040.00;;;;7393742;19;20150;-76
2023/06/18 02:13:17;;;;;;;10.88;5.38;;;;;16.00;94034.00;;;;7394713;19;20148;-77
2023/06/18 02:15:53;;;;;;;5.85;5.20;;;;;16.00;94041.00;;;;7388831;19;20626;-81
2023/06/18 02:18:27;;;;;;;5.80;5.20;;;;;16.10;94041.00;;;;7393559;19;20174;-82
2023/06/18 02:20:55;;;;;;;9.77;5.43;;;;;16.00;94039.00;;;;7400857;19;20208;-79
2023/06/18 02:23:29;;;;;;;9.32;5.57;;;;;16.20;94038.00;;;;7401425;19;20545;-82
2023/06/18 02:25:58;;;;;;;6.63;5.10;;;;;16.10;94037.00;;;;7401982;19;20208;-83
2023/06/18 02:28:26;;;;;;;11.13;5.50;;;;;16.30;94042.00;;;;7399482;19;20152;-81
2023/06/18 02:31:01;;;;;;;8.18;5.55;;;;;16.30;94039.00;;;;7398534;19;20153;-80
2023/06/18 02:33:36;;;;;;;7.15;5.32;;;;;16.20;94044.00;;;;7402052;19;20146;-82
2023/06/18 02:36:10;;;;;;;6.05;5.32;;;;;16.30;94031.00;;;;7398823;19;20628;-83
2023/06/18 02:38:44;;;;;;;6.35;5.10;;;;;16.30;94036.00;;;;7400507;19;20192;-83
2023/06/18 02:41:19;;;;;;;8.40;5.35;;;;;16.40;94038.00;;;;7400492;19;20148;-82
2023/06/18 02:43:50;;;;;;;5.45;4.57;;;;;16.40;94042.00;;;;7397900;19;20160;-82
2023/06/18 02:46:24;;;;;;;7.22;5.18;;;;;16.40;94026.00;;;;7399623;19;20151;-80
2023/06/18 02:48:58;;;;;;;7.70;4.70;;;;;16.30;94023.00;;;;7400972;19;20196;-80
2023/06/18 02:51:26;;;;;;;7.95;5.50;;;;;16.30;94020.00;;;;7399592;19;20159;-83
2023/06/18 02:54:00;;;;;;;7.30;5.50;;;;;16.20;94025.00;;;;7400791;19;20132;-80
2023/06/18 02:56:34;;;;;;;6.90;5.10;;;;;16.20;94036.00;;;;7396603;19;20204;-82
2023/06/18 02:59:02;;;;;;;5.60;5.05;;;;;16.30;94029.00;;;;7397168;19;20151;-81
2023/06/18 03:01:37;;;;;;;9.20;6.03;;;;;16.30;94028.00;;;;7399090;19;20140;-82
2023/06/18 03:04:18;;;;;;;7.00;5.15;;;;;16.20;94031.00;;;;7400418;19;20485;-80
2023/06/18 03:06:57;;;;;;;6.30;4.70;;;;;16.20;94034.00;;;;7400250;19;20502;-80
2023/06/18 03:09:25;;;;;;;5.47;4.80;;;;;16.30;94032.00;;;;7401077;19;20153;-80
2023/06/18 03:11:59;;;;;;;6.55;4.95;;;;;16.30;94034.00;;;;7397230;19;20514;-81
2023/06/18 03:14:33;;;;;;;5.82;4.78;;;;;16.10;94048.00;;;;7399737;19;20612;-82
2023/06/18 03:17:07;;;;;;;9.45;5.00;;;;;15.80;94032.00;;;;7397175;19;20129;-82
2023/06/18 03:19:35;;;;;;;6.25;4.70;;;;;15.70;94046.00;;;;7398878;19;20173;-81
2023/06/18 03:22:10;;;;;;;6.78;5.45;;;;;15.70;94047.00;;;;7399569;19;20612;-80
2023/06/18 03:24:45;;;;;;;6.03;5.43;;;;;15.90;94045.00;;;;7399612;19;20128;-81
2023/06/18 03:27:19;;;;;;;6.78;5.20;;;;;15.90;94036.00;;;;7399012;19;20178;-82
2023/06/18 03:29:47;;;;;;;6.93;5.05;;;;;15.80;94043.00;;;;7401990;19;20196;-79
2023/06/18 03:32:22;;;;;;;5.43;4.68;;;;;16.00;94046.00;;;;7401440;19;20157;-81
2023/06/18 03:34:51;;;;;;;8.75;5.05;;;;;16.20;94031.00;;;;7403987;19;20133;-82
2023/06/18 03:37:20;;;;;;;7.60;5.32;;;;;16.20;94033.00;;;;7399877;19;20149;-81
2023/06/18 03:39:54;;;;;;;8.13;5.10;;;;;16.10;94044.00;;;;7400169;19;20132;-82
2023/06/18 03:42:23;;;;;;;7.75;5.45;;;;;16.20;94040.00;;;;7398503;19;20129;-82
2023/06/18 03:44:57;;;;;;;7.35;5.78;;;;;16.30;94041.00;;;;7398647;19;20152;-81
2023/06/18 03:47:25;;;;;;;7.38;5.45;;;;;16.60;94035.00;;;;7396871;19;20149;-82
2023/06/18 03:49:59;;;;;;;6.53;4.90;;;;;16.60;94040.00;;;;7398526;19;20485;-83
2023/06/18 03:52:33;;;;;;;6.70;5.28;;;;;16.60;94034.00;;;;7397203;19;20149;-81
2023/06/18 03:55:01;;;;;;;5.95;5.03;;;;;16.80;94037.00;;;;7400276;19;20137;-81
2023/06/18 03:57:30;;;;;;;5.75;5.03;;;;;17.00;94039.00;;;;7395908;19;20145;-81
2023/06/18 04:00:07;;;;;;;6.03;5.30;;;;;17.10;94037.00;;;;7397964;19;20144;-80
2023/06/18 04:02:42;;;;;;;9.82;5.15;;;;;16.90;94042.00;;;;7398636;19;20175;-81
2023/06/18 04:05:23;;;;;;;6.47;5.35;;;;;16.80;94045.00;;;;7399728;19;20600;-84
2023/06/18 04:08:04;;;;;;;7.10;5.22;;;;;16.90;94038.00;;;;7398163;19;20149;-84
2023/06/18 04:10:38;;;;;;;9.70;4.90;;;;;17.10;94045.00;;;;7395629;19;20136;-79
2023/06/18 04:13:18;;;;;;;7.15;5.03;;;;;17.30;94039.00;;;;7400379;19;20652;-81
2023/06/18 04:15:45;;;;;;;5.45;4.72;;;;;17.20;94035.00;;;;7397537;19;20204;-82
2023/06/18 04:18:20;;;;;;;9.15;5.50;;;;;17.40;94037.00;;;;7398148;19;20132;-80
2023/06/18 04:20:48;;;;;;;8.98;5.43;;;;;17.30;94043.00;;;;7396941;19;20444;-81
2023/06/18 04:23:23;;;;;;;10.80;5.13;;;;;17.50;94036.00;;;;7398662;19;20136;-82
2023/06/18 04:25:57;;;;;;;7.80;5.47;;;;;17.60;94047.00;;;;7396123;19;20140;-81
2023/06/18 04:28:32;;;;;;;6.18;5.43;;;;;17.50;94037.00;;;;7397109;19;20144;-81
2023/06/18 04:30:59;;;;;;;8.05;5.30;;;;;17.50;94036.00;;;;7393977;19;20148;-81
2023/06/18 04:33:33;;;;;;;7.32;5.07;;;;;17.50;94041.00;;;;7395823;19;20221;-76
2023/06/18 04:36:08;;;;;;;8.07;5.38;;;;;17.30;94035.00;;;;7395879;19;20620;-76
2023/06/18 04:38:39;;;;;;;9.82;5.60;;;;;17.40;94035.00;;;;7395764;19;20140;-76
2023/06/18 04:41:13;;;;;;;6.80;5.70;;;;;17.30;94029.00;;;;7395747;19;20149;-75
2023/06/18 04:43:41;;;;;;;5.90;4.80;;;;;17.30;94035.00;;;;7394245;19;20165;-77
2023/06/18 04:46:15;;;;;;;6.20;5.35;;;;;17.30;94033.00;;;;7394563;19;20458;-76
2023/06/18 04:48:43;;;;;;;8.15;5.63;;;;;17.20;94033.00;;;;7396315;19;20128;-76
2023/06/18 04:51:24;;;;;;;8.40;5.65;;;;;17.30;94035.00;;;;7396036;19;20987;-76
2023/06/18 04:53:58;;;;;;;6.55;5.47;;;;;17.30;94035.00;;;;7397168;19;20129;-77
2023/06/18 04:56:33;;;;;;;10.23;5.00;;;;;17.30;94036.00;;;;7396690;19;20132;-76
2023/06/18 04:59:02;;;;;;;8.65;4.85;;;;;17.40;94032.00;;;;7394852;19;20243;-76
2023/06/18 05:01:30;;;;;;;9.38;5.88;;;;;17.60;94035.00;;;;7395753;19;20156;-77
2023/06/18 05:04:11;;;;;;;8.38;5.45;;;;;17.80;94023.00;;;;7393121;19;20502;-76
2023/06/18 05:06:46;;;;;;;5.57;4.85;;;;;18.00;94024.00;;;;7395347;19;20163;-76
2023/06/18 05:09:20;;;;;;;7.15;5.15;;;;;18.30;94022.00;;;;7394860;19;20583;-76
2023/06/18 05:11:55;;;;;;;6.75;5.32;;;;;18.50;94020.00;;;;7396272;19;20144;-76
2023/06/18 05:14:29;;;;;;;5.72;4.72;;;;;18.60;94028.00;;;;7395973;19;20484;-76
2023/06/18 05:17:05;;;;;;;5.82;5.20;;;;;18.90;94028.00;;;;7391916;19;20142;-77
2023/06/18 05:19:39;;;;;;;6.60;5.60;;;;;19.10;94027.00;;;;7394377;19;20131;-77
2023/06/18 05:22:14;;;;;;;6.32;5.18;;;;;19.30;94032.00;;;;7395695;19;20148;-77
2023/06/18 05:24:42;;;;;;;5.53;4.65;;;;;19.40;94028.00;;;;7394507;19;20149;-77
2023/06/18 05:27:16;;;;;;;5.95;4.80;;;;;19.50;94028.00;;;;7394645;19;20143;-77
2023/06/18 05:29:50;;;;;;;7.63;5.25;;;;;19.80;94018.00;;;;7396946;19;20133;-77
2023/06/18 05:32:25;;;;;;;6.85;5.05;;;;;20.10;94025.00;;;;7389940;19;20166;-76
2023/06/18 05:35:00;;;;;;;6.65;5.10;;;;;20.30;94022.00;;;;7393548;19;20489;-77
2023/06/18 05:37:35;;;;;;;7.13;4.97;;;;;20.50;94032.00;;;;7393681;19;20212;-76
2023/06/18 05:40:11;;;;;;;5.20;4.55;;;;;20.60;94033.00;;;;7393721;19;20144;-77
2023/06/18 05:42:39;;;;;;;5.75;5.15;;;;;20.90;94028.00;;;;7393503;19;20622;-77
2023/06/18 05:45:13;;;;;;;6.95;5.13;;;;;21.10;94031.00;;;;7395029;19;20144;-82
2023/06/18 05:47:47;;;;;;;6.63;4.28;;;;;21.30;94038.00;;;;7396111;19;20469;-86
2023/06/18 05:50:22;;;;;;;8.50;5.10;;;;;21.30;94044.00;;;;7372771;19;20500;-80
2023/06/18 05:52:51;;;;;;;7.63;4.75;;;;;21.40;94036.00;;;;7371453;19;20251;-80
2023/06/18 05:55:25;;;;;;;6.18;5.28;;;;;21.80;94032.00;;;;7384863;19;20150;-83
2023/06/18 05:57:53;;;;;;;6.05;4.35;;;;;22.00;94041.00;;;;7387704;19;20143;-77
2023/06/18 06:00:27;;;;;;;5.78;4.88;;;;;22.30;94041.00;;;;7384799;19;20151;-80
2023/06/18 06:03:02;;;;;;;6.30;5.43;;;;;22.50;94039.00;;;;7386979;19;20184;-76
2023/06/18 06:05:43;;;;;;;6.43;5.05;;;;;22.30;94038.00;;;;7388091;19;20165;-81
2023/06/18 06:08:11;;;;;;;5.60;4.80;;;;;22.40;94043.00;;;;7388783;19;20522;-82
2023/06/18 06:10:45;;;;;;;8.02;5.50;;;;;22.50;94040.00;;;;7387960;19;20612;-82
2023/06/18 06:13:14;;;;;;;5.72;4.63;;;;;22.90;94045.00;;;;7389526;19;20156;-80
2023/06/18 06:15:48;;;;;;;6.40;5.40;;;;;23.10;94047.00;;;;7386228;19;20148;-76
2023/06/18 06:18:22;;;;;;;5.95;5.10;;;;;23.50;94051.00;;;;7388614;19;20723;-84
2023/06/18 06:20:50;;;;;;;7.05;5.05;;;;;23.70;94044.00;;;;7386322;19;20151;-81
2023/06/18 06:23:26;;;;;;;9.10;5.30;;;;;24.10;94039.00;;;;7388033;19;20151;-79
2023/06/18 06:26:01;;;;;;;5.43;4.88;;;;;24.20;94034.00;;;;7390498;19;20136;-81
2023/06/18 06:28:28;;;;;;;8.55;5.05;;;;;24.50;94036.00;;;;7388005;19;20181;-80
2023/06/18 06:31:06;;;;;;;5.53;4.90;;;;;24.90;94030.00;;;;7381333;19;20482;-79
2023/06/18 06:33:34;;;;;;;6.68;4.65;;;;;25.20;94037.00;;;;7385165;19;20152;-80
2023/06/18 06:36:09;;;;;;;10.65;5.70;;;;;25.50;94042.00;;;;7385107;19;20133;-78
2023/06/18 06:38:37;;;;;;;9.27;4.93;;;;;25.40;94040.00;;;;7387233;19;20160;-78
2023/06/18 06:41:11;;;;;;;5.68;5.05;;;;;25.50;94040.00;;;;7385726;19;20162;-80
2023/06/18 06:43:39;;;;;;;7.35;5.55;;;;;25.90;94044.00;;;;7387151;19;20553;-81
2023/06/18 06:46:21;;;;;;;6.88;4.78;;;;;25.50;94044.00;;;;7385972;19;20496;-81
2023/06/18 06:48:51;;;;;;;9.02;5.18;;;;;26.00;94040.00;;;;7386781;19;20219;-79
2023/06/18 06:51:27;;;;;;;6.55;5.10;;;;;26.10;94042.00;;;;7386453;19;20132;-79
2023/06/18 06:54:04;;;;;;;6.95;5.57;;;;;26.10;94043.00;;;;7386406;19;20199;-72
2023/06/18 06:56:32;;;;;;;6.53;4.93;;;;;26.00;94052.00;;;;7386977;19;20605;-75
2023/06/18 06:59:22;;;;;;;6.13;4.80;;;;;25.70;94055.00;;;;7388969;19;21092;-74
2023/06/18 07:01:56;;;;;;;7.85;5.00;;;;;25.90;94056.00;;;;7385285;19;20157;-72
2023/06/18 07:04:38;;;;;;;10.18;5.28;;;;;25.60;94056.00;;;;7386543;19;20509;-76
2023/06/18 07:07:14;;;;;;;6.50;5.03;;;;;25.40;94060.00;;;;7386245;19;20149;-74
2023/06/18 07:09:48;;;;;;;6.57;4.72;;;;;25.10;94062.00;;;;7388552;19;20129;-73
2023/06/18 07:12:22;;;;;;;5.55;4.97;;;;;25.30;94058.00;;;;7387306;19;20486;-76
2023/06/18 07:14:56;;;;;;;5.72;4.85;;;;;25.10;94061.00;;;;7387312;19;20133;-74
2023/06/18 07:17:30;;;;;;;8.30;5.22;;;;;25.00;94062.00;;;;7387327;19;20244;-74
2023/06/18 07:19:58;;;;;;;9.95;5.75;;;;;25.30;94059.00;;;;7388288;19;20129;-74
2023/06/18 07:22:32;;;;;;;8.38;5.15;;;;;25.50;94057.00;;;;7385862;19;20219;-75
2023/06/18 07:25:03;;;;;;;5.43;4.93;;;;;25.60;94063.00;;;;7385452;19;20182;-76
2023/06/18 07:27:37;;;;;;;6.18;5.07;;;;;25.60;94066.00;;;;7386061;19;20240;-75
2023/06/18 07:30:12;;;;;;;8.73;4.53;;;;;25.60;94062.00;;;;7384852;19;20143;-76
2023/06/18 07:32:46;;;;;;;5.78;5.28;;;;;25.80;94073.00;;;;7385310;19;20164;-73
2023/06/18 07:35:20;;;;;;;7.43;5.22;;;;;26.40;94066.00;;;;7382926;19;20149;-74
2023/06/18 07:37:49;;;;;;;6.07;5.00;;;;;25.90;94069.00;;;;7385113;19;20671;-74
2023/06/18 07:40:25;;;;;;;9.88;5.38;;;;;26.00;94064.00;;;;7385404;19;20160;-75
2023/06/18 07:42:53;;;;;;;7.05;5.07;;;;;26.00;94067.00;;;;7386261;19;20160;-73
2023/06/18 07:45:21;;;;;;;7.72;5.25;;;;;26.20;94059.00;;;;7384783;19;20125;-74
2023/06/18 07:47:56;;;;;;;7.57;5.40;;;;;26.30;94070.00;;;;7387813;19;20140;-73
2023/06/18 07:50:31;;;;;;;6.60;4.85;;;;;26.70;94063.00;;;;7384557;19;20132;-76
2023/06/18 07:52:58;;;;;;;5.97;4.82;;;;;27.00;94059.00;;;;7386871;19;20136;-73
2023/06/18 07:55:32;;;;;;;6.63;5.25;;;;;26.80;94056.00;;;;7384871;19;20612;-75
2023/06/18 07:58:00;;;;;;;5.80;5.30;;;;;26.80;94066.00;;;;7385472;19;20593;-73
2023/06/18 08:00:34;;;;;;;9.18;5.07;;;;;26.40;94065.00;;;;7386641;19;20633;-72
2023/06/18 08:03:09;;;;;;;5.65;5.07;;;;;26.00;94067.00;;;;7385853;19;20789;-72
2023/06/18 08:05:50;;;;;;;8.30;5.53;;;;;26.10;94066.00;;;;7384283;19;20629;-76
2023/06/18 08:08:25;;;;;;;7.28;5.25;;;;;26.20;94071.00;;;;7391176;19;20153;-76
2023/06/18 08:10:53;;;;;;;5.07;4.55;;;;;26.00;94066.00;;;;7383477;19;20487;-76
2023/06/18 08:13:21;;;;;;;5.65;4.95;;;;;25.90;94067.00;;;;7380635;19;20153;-76
2023/06/18 08:15:56;;;;;;;5.68;5.18;;;;;25.80;94073.00;;;;7384559;19;20494;-76
2023/06/18 08:18:23;;;;;;;8.55;4.97;;;;;25.90;94070.00;;;;7380749;19;20132;-76
2023/06/18 08:20:57;;;;;;;9.20;4.97;;;;;26.00;94064.00;;;;7383478;19;20139;-76
2023/06/18 08:23:27;;;;;;;6.25;5.00;;;;;26.40;94061.00;;;;7380819;19;20133;-76
2023/06/18 08:26:01;;;;;;;5.43;4.90;;;;;26.70;94061.00;;;;7384994;19;20132;-77
2023/06/18 08:28:29;;;;;;;8.25;5.50;;;;;26.70;94065.00;;;;7382810;19;21838;-79
2023/06/18 08:31:03;;;;;;;6.72;4.97;;;;;26.80;94062.00;;;;7381340;19;20125;-76
2023/06/18 08:33:31;;;;;;;5.82;4.90;;;;;26.80;94062.00;;;;7384827;19;20154;-77
2023/06/18 08:36:05;;;;;;;7.03;5.15;;;;;26.80;94052.00;;;;7383938;19;20140;-77
2023/06/18 08:38:33;;;;;;;6.22;5.53;;;;;27.50;94053.00;;;;7381532;19;23149;-77
2023/06/18 08:41:09;;;;;;;6.43;4.93;;;;;28.30;94054.00;;;;7383695;19;20212;-77
2023/06/18 08:43:45;;;;;;;5.80;4.90;;;;;28.40;94055.00;;;;7382781;19;20593;-77
2023/06/18 08:46:21;;;;;;;6.97;4.35;;;;;28.90;94049.00;;;;7382677;19;20133;-76
2023/06/18 08:49:00;;;;;;;7.15;5.22;;;;;29.00;94048.00;;;;7383920;19;20138;-76
2023/06/18 08:51:37;;;;;;;7.55;4.95;;;;;29.20;94039.00;;;;7383477;19;20133;-77
2023/06/18 08:54:18;;;;;;;6.95;5.13;;;;;28.90;94045.00;;;;7379487;19;20155;-77
2023/06/18 08:56:58;;;;;;;6.18;4.78;;;;;28.50;94050.00;;;;7374997;19;20167;-77
2023/06/18 08:59:27;;;;;;;7.88;4.45;;;;;28.70;94044.00;;;;7381129;19;20163;-77
2023/06/18 09:02:03;;;;;;;6.82;5.30;;;;;29.30;94043.00;;;;7381327;19;20334;-78
2023/06/18 09:04:41;;;;;;;9.55;4.78;;;;;29.60;94044.00;;;;7381583;19;20229;-77
2023/06/18 09:07:16;;;;;;;8.35;5.28;;;;;30.00;94037.00;;;;7384422;19;20155;-77
2023/06/18 09:09:44;;;;;;;6.63;5.28;;;;;29.90;94041.00;;;;7380897;19;20159;-77
2023/06/18 09:12:12;;;;;;;6.90;5.28;;;;;29.80;94041.00;;;;7379522;19;20589;-77
2023/06/18 09:14:48;;;;;;;6.57;4.72;;;;;29.50;94045.00;;;;7381752;19;20152;-77
2023/06/18 09:17:23;;;;;;;7.82;5.15;;;;;29.60;94039.00;;;;7384094;19;20642;-77
2023/06/18 09:19:58;;;;;;;8.48;4.90;;;;;29.00;94047.00;;;;7394846;19;20152;-76
2023/06/18 09:22:47;;;;;;;6.63;5.13;;;;;28.70;94035.00;;;;7395207;19;20143;-76
2023/06/18 09:25:22;;;;;;;5.88;4.63;;;;;29.10;94032.00;;;;7394940;19;20596;-77
2023/06/18 09:27:59;;;;;;;5.97;5.47;;;;;29.20;94033.00;;;;7393694;19;20496;-76
2023/06/18 09:30:33;;;;;;;5.68;5.18;;;;;28.80;94042.00;;;;7390094;19;20990;-76
2023/06/18 09:33:07;;;;;;;7.75;5.15;;;;;28.30;94060.00;;;;7393914;19;20605;-76
2023/06/18 09:35:41;;;;;;;5.93;5.32;;;;;27.40;94056.00;;;;7391879;19;20160;-76
2023/06/18 09:38:09;;;;;;;8.50;5.30;;;;;27.00;94050.00;;;;7394444;19;20136;-77
2023/06/18 09:40:48;;;;;;;10.90;5.25;;;;;27.70;94049.00;;;;7395523;19;20480;-76
2023/06/18 09:43:22;;;;;;;7.47;5.20;;;;;27.90;94037.00;;;;7394919;19;20132;-75
2023/06/18 09:45:57;;;;;;;8.20;5.13;;;;;28.40;94039.00;;;;7399092;19;20200;-75
2023/06/18 09:48:26;;;;;;;6.68;5.32;;;;;29.10;94038.00;;;;7394473;19;20136;-80
2023/06/18 09:51:01;;;;;;;6.00;4.88;;;;;29.10;94036.00;;;;7393696;19;20145;-77
2023/06/18 09:53:29;;;;;;;7.68;5.20;;;;;29.30;94030.00;;;;7392784;19;20212;-79
2023/06/18 09:56:14;;;;;;;5.13;4.72;;;;;29.10;94031.00;;;;7396535;19;20131;-76
2023/06/18 09:58:49;;;;;;;12.13;5.15;;;;;29.30;94029.00;;;;7392938;19;20139;-78
2023/06/18 10:01:27;;;;;;;5.43;4.90;;;;;29.90;94025.00;;;;7392282;19;20127;-76
2023/06/18 10:04:01;;;;;;;5.95;5.03;;;;;30.40;94014.00;;;;7390746;19;20190;-79
2023/06/18 10:06:37;;;;;;;5.55;4.85;;;;;30.40;94020.00;;;;7393777;19;20148;-79
2023/06/18 10:09:06;;;;;;;6.25;5.65;;;;;30.40;94022.00;;;;7392829;19;20145;-79
2023/06/18 10:11:42;;;;;;;7.30;5.28;;;;;30.30;94016.00;;;;7393181;19;20127;-78
2023/06/18 10:14:13;;;;;;;6.18;5.20;;;;;30.80;94013.00;;;;7393367;19;20188;-79
2023/06/18 10:16:50;;;;;;;5.95;4.93;;;;;31.80;94013.00;;;;7392828;19;20132;-79
2023/06/18 10:19:37;;;;;;;8.05;5.03;;;;;32.20;94008.00;;;;7390026;19;20154;-79
2023/06/18 10:22:13;;;;;;;5.25;4.75;;;;;31.60;94013.00;;;;7392493;19;20141;-79
2023/06/18 10:24:58;;;;;;;9.38;4.72;;;;;32.00;94008.00;;;;7393419;19;20143;-78
2023/06/18 10:27:34;;;;;;;8.35;5.05;;;;;32.10;94014.00;;;;7393758;19;20137;-76
2023/06/18 10:30:03;;;;;;;6.13;4.97;;;;;31.50;94014.00;;;;7395135;19;20124;-75
2023/06/18 10:32:41;;;;;;;6.10;5.53;;;;;31.10;94009.00;;;;7392369;19;20144;-77
2023/06/18 10:35:18;;;;;;;5.68;5.18;;;;;30.80;94004.00;;;;7392681;19;20518;-76
2023/06/18 10:37:56;;;;;;;5.25;4.82;;;;;31.40;94008.00;;;;7391176;19;20148;-77
2023/06/18 10:40:24;;;;;;;6.32;5.20;;;;;31.90;94004.00;;;;7395655;19;20140;-76
2023/06/18 10:43:08;;;;;;;5.82;4.85;;;;;31.40;94006.00;;;;7401089;19;20153;-76
2023/06/18 10:45:36;;;;;;;6.03;5.43;;;;;30.60;94010.00;;;;7401742;19;20144;-78
2023/06/18 10:48:15;;;;;;;6.82;4.78;;;;;30.70;93997.00;;;;7400488;19;20144;-77
2023/06/18 10:51:14;;;;;;;8.23;4.88;;;;;31.60;94003.00;;;;7401121;19;20651;-78
2023/06/18 10:54:19;;;;;;;9.80;5.28;;;;;31.90;93996.00;;;;7399782;19;20132;-78
2023/06/18 10:57:05;;;;;;;5.93;5.20;;;;;31.10;93992.00;;;;7401491;19;20140;-76
2023/06/18 10:59:44;;;;;;;7.05;5.22;;;;;31.60;93989.00;;;;7398059;19;20144;-76
2023/06/18 11:02:13;;;;;;;6.38;4.97;;;;;31.70;93989.00;;;;7398160;19;20180;-77
2023/06/18 11:04:57;;;;;;;7.35;4.72;;;;;31.40;93999.00;;;;7394799;19;20192;-77
2023/06/18 11:07:27;;;;;;;5.60;5.10;;;;;31.80;93991.00;;;;7397644;19;20123;-76
2023/06/18 11:10:05;;;;;;;6.18;4.95;;;;;31.70;93986.00;;;;7400555;19;20565;-79
2023/06/18 11:12:44;;;;;;;5.97;5.38;;;;;31.60;93990.00;;;;7399002;19;20483;-76
2023/06/18 11:15:20;;;;;;;5.97;5.38;;;;;31.30;93983.00;;;;7398608;19;20609;-77
2023/06/18 11:17:53;;;;;;;8.38;4.95;;;;;31.40;93973.00;;;;7398934;19;20608;-77
2023/06/18 11:20:31;;;;;;;9.40;5.93;;;;;32.00;93972.00;;;;7399406;19;20149;-78
2023/06/18 11:23:06;;;;;;;5.63;5.13;;;;;32.60;93968.00;;;;7398340;19;20140;-77
2023/06/18 11:25:41;;;;;;;7.35;5.00;;;;;32.40;93971.00;;;;7398532;19;20170;-76
2023/06/18 11:28:09;;;;;;;5.80;5.13;;;;;32.00;93967.00;;;;7397731;19;20152;-76
2023/06/18 11:30:48;;;;;;;5.53;5.00;;;;;32.50;93968.00;;;;7395333;19;20140;-77
2023/06/18 11:33:27;;;;;;;10.93;5.05;;;;;33.20;93969.00;;;;7399291;19;20120;-76
2023/06/18 11:36:13;;;;;;;5.53;4.50;;;;;33.50;93958.00;;;;7398736;19;20138;-75
2023/06/18 11:38:45;;;;;;;6.35;5.40;;;;;33.60;93953.00;;;;7395337;19;20183;-74
2023/06/18 11:41:22;;;;;;;6.07;5.50;;;;;33.40;93957.00;;;;7396963;19;20198;-75
2023/06/18 11:43:52;;;;;;;8.13;4.95;;;;;33.50;93948.00;;;;7398831;19;20152;-76
2023/06/18 11:46:27;;;;;;;7.20;5.60;;;;;33.20;93941.00;;;;7398942;19;20589;-74
2023/06/18 11:48:55;;;;;;;6.00;5.40;;;;;32.80;93943.00;;;;7398893;19;20214;-76
2023/06/18 11:51:30;;;;;;;7.45;5.35;;;;;31.30;93939.00;;;;7398729;19;20589;-75
2023/06/18 11:53:59;;;;;;;6.07;5.47;;;;;31.30;93920.00;;;;7394186;19;20133;-74
2023/06/18 11:56:34;;;;;;;7.47;5.15;;;;;32.00;93925.00;;;;7395684;19;20139;-74
2023/06/18 11:59:08;;;;;;;8.13;5.63;;;;;33.40;93925.00;;;;7396269;19;20163;-76
2023/06/18 12:01:36;;;;;;;5.90;5.15;;;;;33.60;93916.00;;;;7396506;19;20478;-76
2023/06/18 12:04:16;;;;;;;6.35;5.20;;;;;34.50;93925.00;;;;7396327;19;20147;-76
2023/06/18 12:06:47;;;;;;;10.52;5.35;;;;;33.60;93923.00;;;;7397703;19;20174;-76
2023/06/18 12:09:21;;;;;;;6.50;5.35;;;;;33.80;93919.00;;;;7397643;19;20135;-76
2023/06/18 12:12:20;;;;;;;7.38;5.28;;;;;34.00;93921.00;;;;7398508;19;20534;-76
2023/06/18 12:15:08;;;;;;;5.80;5.20;;;;;34.10;93911.00;;;;7393699;19;20136;-77
2023/06/18 12:17:46;;;;;;;6.40;4.95;;;;;34.60;93947.00;;;;7396192;19;20215;-76
2023/06/18 12:20:21;;;;;;;9.82;5.20;;;;;33.20;93946.00;;;;7398561;19;20136;-76
2023/06/18 12:22:58;;;;;;;7.13;5.43;;;;;32.90;93940.00;;;;7397076;19;20476;-76
2023/06/18 12:25:32;;;;;;;7.30;5.35;;;;;32.10;93929.00;;;;7391563;19;20164;-76
2023/06/18 12:28:08;;;;;;;6.55;5.28;;;;;32.90;93934.00;;;;7396442;19;20155;-77
2023/06/18 12:30:43;;;;;;;5.45;4.95;;;;;33.40;93928.00;;;;7397587;19;20127;-76
2023/06/18 12:33:19;;;;;;;8.15;5.35;;;;;34.50;93895.00;;;;7392701;19;20178;-77
2023/06/18 12:35:58;;;;;;;5.63;5.13;;;;;35.60;93890.00;;;;7396461;19;20152;-75
2023/06/18 12:38:43;;;;;;;5.57;5.07;;;;;36.00;93888.00;;;;7396154;19;20144;-75
2023/06/18 12:41:22;;;;;;;10.10;5.22;;;;;34.90;93888.00;;;;7395004;19;20167;-75
2023/06/18 12:43:57;;;;;;;5.88;5.15;;;;;35.10;93886.00;;;;7392270;19;20185;-75
2023/06/18 12:46:35;;;;;;;6.53;5.85;;;;;35.20;93886.00;;;;7397191;19;20157;-84
2023/06/18 12:49:09;;;;;;;4.88;4.47;;;;;35.30;93886.00;;;;7394927;19;20137;-80
2023/06/18 12:51:46;;;;;;;5.53;5.03;;;;;35.40;93879.00;;;;7395665;19;20223;-80